sensor_id;sensor_type;location;lat;lon;timestamp;P1;durP1;ratioP1;P2;durP2;ratioP2
67092;SDS011;54011;50.772;7.730;2022-10-18T00:01:41;18.42;;;10.25;;
67092;SDS011;54011;50.772;7.730;2022-10-18T00:04:07;18.35;;;10.00;;
67092;SDS011;54011;50.772;7.730;2022-10-18T00:06:33;19.48;;;10.40;;
67092;SDS011;54011;50.772;7.730;2022-10-18T00:08:59;26.25;;;11.30;;
67092;SDS011;54011;50.772;7.730;2022-10-18T00:11:24;19.70;;;10.85;;
67092;SDS011;54011;50.772;7.730;2022-10-18T00:13:50;19.63;;;11.27;;
67092;SDS011;54011;50.772;7.730;2022-10-18T00:16:16;17.98;;;11.00;;
67092;SDS011;54011;50.772;7.730;2022-10-18T00:18:43;19.75;;;10.88;;
67092;SDS011;54011;50.772;7.730;2022-10-18T00:21:12;21.35;;;11.80;;
67092;SDS011;54011;50.772;7.730;2022-10-18T00:23:40;18.67;;;11.27;;
67092;SDS011;54011;50.772;7.730;2022-10-18T00:28:36;86.63;;;13.40;;
67092;SDS011;54011;50.772;7.730;2022-10-18T00:31:13;428.33;;;16.25;;
67092;SDS011;54011;50.772;7.730;2022-10-18T00:33:41;430.02;;;19.85;;
67092;SDS011;54011;50.772;7.730;2022-10-18T00:36:08;24.92;;;11.65;;
67092;SDS011;54011;50.772;7.730;2022-10-18T00:38:34;20.90;;;11.07;;
67092;SDS011;54011;50.772;7.730;2022-10-18T00:41:00;26.60;;;12.65;;
67092;SDS011;54011;50.772;7.730;2022-10-18T00:43:26;23.65;;;13.27;;
67092;SDS011;54011;50.772;7.730;2022-10-18T00:45:52;25.42;;;13.32;;
67092;SDS011;54011;50.772;7.730;2022-10-18T00:48:17;25.25;;;11.68;;
67092;SDS011;54011;50.772;7.730;2022-10-18T00:50:44;27.27;;;11.25;;
67092;SDS011;54011;50.772;7.730;2022-10-18T00:53:14;24.73;;;11.40;;
67092;SDS011;54011;50.772;7.730;2022-10-18T00:55:41;27.35;;;11.23;;
67092;SDS011;54011;50.772;7.730;2022-10-18T00:58:07;23.00;;;11.40;;
67092;SDS011;54011;50.772;7.730;2022-10-18T01:00:34;21.35;;;10.93;;
67092;SDS011;54011;50.772;7.730;2022-10-18T01:03:04;27.63;;;10.85;;
67092;SDS011;54011;50.772;7.730;2022-10-18T01:05:30;16.88;;;10.30;;
67092;SDS011;54011;50.772;7.730;2022-10-18T01:10:53;15.43;;;9.07;;
67092;SDS011;54011;50.772;7.730;2022-10-18T01:21:56;31.02;;;8.48;;
67092;SDS011;54011;50.772;7.730;2022-10-18T01:32:49;25.35;;;8.65;;
67092;SDS011;54011;50.772;7.730;2022-10-18T01:35:22;14.50;;;8.52;;
67092;SDS011;54011;50.772;7.730;2022-10-18T01:37:55;44.97;;;8.77;;
67092;SDS011;54011;50.772;7.730;2022-10-18T01:40:23;72.68;;;9.10;;
67092;SDS011;54011;50.772;7.730;2022-10-18T01:42:49;37.58;;;8.30;;
67092;SDS011;54011;50.772;7.730;2022-10-18T01:45:15;26.38;;;7.68;;
67092;SDS011;54011;50.772;7.730;2022-10-18T01:47:42;72.43;;;9.57;;
67092;SDS011;54011;50.772;7.730;2022-10-18T01:50:09;26.67;;;9.10;;
67092;SDS011;54011;50.772;7.730;2022-10-18T01:52:35;18.60;;;9.07;;
67092;SDS011;54011;50.772;7.730;2022-10-18T01:55:00;24.15;;;8.23;;
67092;SDS011;54011;50.772;7.730;2022-10-18T02:00:13;13.27;;;7.43;;
67092;SDS011;54011;50.772;7.730;2022-10-18T02:02:53;287.10;;;11.10;;
67092;SDS011;54011;50.772;7.730;2022-10-18T02:08:37;101.18;;;7.03;;
67092;SDS011;54011;50.772;7.730;2022-10-18T02:11:13;44.55;;;6.63;;
67092;SDS011;54011;50.772;7.730;2022-10-18T02:16:13;14.85;;;5.88;;
67092;SDS011;54011;50.772;7.730;2022-10-18T02:19:01;22.20;;;5.85;;
67092;SDS011;54011;50.772;7.730;2022-10-18T02:21:33;36.90;;;5.55;;
67092;SDS011;54011;50.772;7.730;2022-10-18T02:24:00;16.17;;;4.65;;
67092;SDS011;54011;50.772;7.730;2022-10-18T02:26:26;10.75;;;4.57;;
67092;SDS011;54011;50.772;7.730;2022-10-18T02:28:52;11.73;;;4.35;;
67092;SDS011;54011;50.772;7.730;2022-10-18T02:31:24;6.68;;;4.22;;
67092;SDS011;54011;50.772;7.730;2022-10-18T02:34:29;7.75;;;3.92;;
67092;SDS011;54011;50.772;7.730;2022-10-18T02:36:52;12.38;;;4.32;;
67092;SDS011;54011;50.772;7.730;2022-10-18T02:39:21;7.22;;;4.10;;
67092;SDS011;54011;50.772;7.730;2022-10-18T02:42:01;8.95;;;4.15;;
67092;SDS011;54011;50.772;7.730;2022-10-18T02:44:35;6.75;;;3.85;;
67092;SDS011;54011;50.772;7.730;2022-10-18T02:47:02;7.27;;;4.07;;
67092;SDS011;54011;50.772;7.730;2022-10-18T02:49:29;9.13;;;3.92;;
67092;SDS011;54011;50.772;7.730;2022-10-18T02:51:54;6.88;;;3.40;;
67092;SDS011;54011;50.772;7.730;2022-10-18T02:54:21;12.30;;;4.00;;
67092;SDS011;54011;50.772;7.730;2022-10-18T02:56:47;6.38;;;3.60;;
67092;SDS011;54011;50.772;7.730;2022-10-18T02:59:12;9.30;;;4.60;;
67092;SDS011;54011;50.772;7.730;2022-10-18T03:01:41;6.90;;;3.33;;
67092;SDS011;54011;50.772;7.730;2022-10-18T03:04:06;57.50;;;4.30;;
67092;SDS011;54011;50.772;7.730;2022-10-18T03:06:32;187.23;;;6.93;;
67092;SDS011;54011;50.772;7.730;2022-10-18T03:08:58;123.43;;;4.95;;
67092;SDS011;54011;50.772;7.730;2022-10-18T03:11:23;72.53;;;4.10;;
67092;SDS011;54011;50.772;7.730;2022-10-18T03:13:49;106.93;;;4.78;;
67092;SDS011;54011;50.772;7.730;2022-10-18T03:16:20;53.17;;;4.53;;
67092;SDS011;54011;50.772;7.730;2022-10-18T03:18:46;62.17;;;4.30;;
67092;SDS011;54011;50.772;7.730;2022-10-18T03:21:11;31.73;;;4.57;;
67092;SDS011;54011;50.772;7.730;2022-10-18T03:23:37;6.72;;;3.70;;
67092;SDS011;54011;50.772;7.730;2022-10-18T03:26:05;9.25;;;3.78;;
67092;SDS011;54011;50.772;7.730;2022-10-18T03:28:31;8.95;;;3.30;;
67092;SDS011;54011;50.772;7.730;2022-10-18T03:31:00;9.45;;;3.25;;
67092;SDS011;54011;50.772;7.730;2022-10-18T03:33:28;10.95;;;3.22;;
67092;SDS011;54011;50.772;7.730;2022-10-18T03:35:54;6.10;;;3.53;;
67092;SDS011;54011;50.772;7.730;2022-10-18T03:38:20;7.47;;;3.35;;
67092;SDS011;54011;50.772;7.730;2022-10-18T03:40:45;6.78;;;3.67;;
67092;SDS011;54011;50.772;7.730;2022-10-18T03:43:11;6.15;;;3.45;;
67092;SDS011;54011;50.772;7.730;2022-10-18T03:45:36;211.45;;;8.02;;
67092;SDS011;54011;50.772;7.730;2022-10-18T03:48:02;380.42;;;13.70;;
67092;SDS011;54011;50.772;7.730;2022-10-18T03:50:28;56.55;;;3.70;;
67092;SDS011;54011;50.772;7.730;2022-10-18T03:52:53;7.43;;;3.28;;
67092;SDS011;54011;50.772;7.730;2022-10-18T03:55:19;115.43;;;5.70;;
67092;SDS011;54011;50.772;7.730;2022-10-18T03:57:45;85.35;;;4.97;;
67092;SDS011;54011;50.772;7.730;2022-10-18T04:00:11;64.80;;;4.82;;
67092;SDS011;54011;50.772;7.730;2022-10-18T04:02:39;34.40;;;4.50;;
67092;SDS011;54011;50.772;7.730;2022-10-18T04:05:05;56.65;;;4.72;;
67092;SDS011;54011;50.772;7.730;2022-10-18T04:07:32;326.77;;;7.38;;
67092;SDS011;54011;50.772;7.730;2022-10-18T04:09:58;369.23;;;8.98;;
67092;SDS011;54011;50.772;7.730;2022-10-18T04:12:24;310.42;;;8.82;;
67092;SDS011;54011;50.772;7.730;2022-10-18T04:14:49;104.38;;;5.30;;
67092;SDS011;54011;50.772;7.730;2022-10-18T04:17:15;251.93;;;8.05;;
67092;SDS011;54011;50.772;7.730;2022-10-18T04:19:40;143.57;;;6.53;;
67092;SDS011;54011;50.772;7.730;2022-10-18T04:22:08;230.95;;;7.90;;
67092;SDS011;54011;50.772;7.730;2022-10-18T04:24:36;288.85;;;8.88;;
67092;SDS011;54011;50.772;7.730;2022-10-18T04:27:03;232.85;;;9.45;;
67092;SDS011;54011;50.772;7.730;2022-10-18T04:29:29;22.17;;;4.00;;
67092;SDS011;54011;50.772;7.730;2022-10-18T04:31:54;32.70;;;4.68;;
67092;SDS011;54011;50.772;7.730;2022-10-18T04:34:20;472.88;;;15.57;;
67092;SDS011;54011;50.772;7.730;2022-10-18T04:36:45;32.47;;;4.85;;
67092;SDS011;54011;50.772;7.730;2022-10-18T04:39:11;16.33;;;4.95;;
67092;SDS011;54011;50.772;7.730;2022-10-18T04:41:36;9.30;;;4.97;;
67092;SDS011;54011;50.772;7.730;2022-10-18T04:44:02;11.95;;;5.80;;
67092;SDS011;54011;50.772;7.730;2022-10-18T04:46:28;12.98;;;6.13;;
67092;SDS011;54011;50.772;7.730;2022-10-18T04:48:53;11.15;;;6.10;;
67092;SDS011;54011;50.772;7.730;2022-10-18T04:51:29;9.57;;;5.82;;
67092;SDS011;54011;50.772;7.730;2022-10-18T04:53:55;11.85;;;7.10;;
67092;SDS011;54011;50.772;7.730;2022-10-18T04:56:20;12.68;;;6.72;;
67092;SDS011;54011;50.772;7.730;2022-10-18T04:58:46;12.25;;;7.57;;
67092;SDS011;54011;50.772;7.730;2022-10-18T05:01:12;13.50;;;8.77;;
67092;SDS011;54011;50.772;7.730;2022-10-18T05:03:37;14.93;;;7.97;;
67092;SDS011;54011;50.772;7.730;2022-10-18T05:06:03;12.15;;;7.63;;
67092;SDS011;54011;50.772;7.730;2022-10-18T05:08:33;9.20;;;6.47;;
67092;SDS011;54011;50.772;7.730;2022-10-18T05:10:59;10.60;;;6.28;;
67092;SDS011;54011;50.772;7.730;2022-10-18T05:13:25;12.00;;;6.38;;
67092;SDS011;54011;50.772;7.730;2022-10-18T05:15:51;13.07;;;7.15;;
67092;SDS011;54011;50.772;7.730;2022-10-18T05:18:16;10.52;;;6.03;;
67092;SDS011;54011;50.772;7.730;2022-10-18T05:20:42;9.90;;;5.80;;
67092;SDS011;54011;50.772;7.730;2022-10-18T05:23:07;10.05;;;6.00;;
67092;SDS011;54011;50.772;7.730;2022-10-18T05:25:42;11.02;;;6.05;;
67092;SDS011;54011;50.772;7.730;2022-10-18T05:28:08;12.60;;;5.63;;
67092;SDS011;54011;50.772;7.730;2022-10-18T05:30:37;10.82;;;4.80;;
67092;SDS011;54011;50.772;7.730;2022-10-18T05:33:07;219.77;;;9.40;;
67092;SDS011;54011;50.772;7.730;2022-10-18T05:35:33;12.52;;;5.93;;
67092;SDS011;54011;50.772;7.730;2022-10-18T05:38:02;11.85;;;6.30;;
67092;SDS011;54011;50.772;7.730;2022-10-18T05:40:30;39.72;;;29.85;;
67092;SDS011;54011;50.772;7.730;2022-10-18T05:42:56;15.40;;;11.45;;
67092;SDS011;54011;50.772;7.730;2022-10-18T05:45:21;12.23;;;6.72;;
67092;SDS011;54011;50.772;7.730;2022-10-18T05:47:46;10.00;;;7.15;;
67092;SDS011;54011;50.772;7.730;2022-10-18T05:50:12;10.40;;;6.38;;
67092;SDS011;54011;50.772;7.730;2022-10-18T05:52:38;10.25;;;6.10;;
67092;SDS011;54011;50.772;7.730;2022-10-18T05:55:03;10.32;;;6.30;;
67092;SDS011;54011;50.772;7.730;2022-10-18T05:57:29;12.95;;;6.18;;
67092;SDS011;54011;50.772;7.730;2022-10-18T05:59:55;28.88;;;6.50;;
67092;SDS011;54011;50.772;7.730;2022-10-18T06:02:20;35.28;;;6.75;;
67092;SDS011;54011;50.772;7.730;2022-10-18T06:04:46;8.85;;;6.22;;
67092;SDS011;54011;50.772;7.730;2022-10-18T06:07:11;18.35;;;7.07;;
67092;SDS011;54011;50.772;7.730;2022-10-18T06:09:37;29.65;;;7.65;;
67092;SDS011;54011;50.772;7.730;2022-10-18T06:12:03;14.35;;;7.35;;
67092;SDS011;54011;50.772;7.730;2022-10-18T06:14:29;18.77;;;8.20;;
67092;SDS011;54011;50.772;7.730;2022-10-18T06:16:54;15.07;;;7.85;;
67092;SDS011;54011;50.772;7.730;2022-10-18T06:19:23;90.07;;;8.80;;
67092;SDS011;54011;50.772;7.730;2022-10-18T06:21:49;144.93;;;9.90;;
67092;SDS011;54011;50.772;7.730;2022-10-18T06:24:14;13.60;;;7.90;;
67092;SDS011;54011;50.772;7.730;2022-10-18T06:26:40;10.40;;;6.60;;
67092;SDS011;54011;50.772;7.730;2022-10-18T06:29:05;25.88;;;6.55;;
67092;SDS011;54011;50.772;7.730;2022-10-18T06:31:31;58.92;;;8.13;;
67092;SDS011;54011;50.772;7.730;2022-10-18T06:33:56;288.25;;;11.65;;
67092;SDS011;54011;50.772;7.730;2022-10-18T06:36:22;289.08;;;11.93;;
67092;SDS011;54011;50.772;7.730;2022-10-18T06:38:48;408.17;;;13.35;;
67092;SDS011;54011;50.772;7.730;2022-10-18T06:41:14;680.22;;;18.55;;
67092;SDS011;54011;50.772;7.730;2022-10-18T06:43:40;368.05;;;11.50;;
67092;SDS011;54011;50.772;7.730;2022-10-18T06:46:07;326.55;;;10.50;;
67092;SDS011;54011;50.772;7.730;2022-10-18T06:48:33;379.45;;;13.88;;
67092;SDS011;54011;50.772;7.730;2022-10-18T06:51:01;140.57;;;8.82;;
67092;SDS011;54011;50.772;7.730;2022-10-18T06:53:28;122.53;;;8.77;;
67092;SDS011;54011;50.772;7.730;2022-10-18T06:56:06;19.45;;;6.30;;
67092;SDS011;54011;50.772;7.730;2022-10-18T06:58:33;8.35;;;5.80;;
67092;SDS011;54011;50.772;7.730;2022-10-18T07:01:04;10.27;;;5.28;;
67092;SDS011;54011;50.772;7.730;2022-10-18T07:03:34;8.68;;;5.20;;
67092;SDS011;54011;50.772;7.730;2022-10-18T07:06:01;8.38;;;4.68;;
67092;SDS011;54011;50.772;7.730;2022-10-18T07:08:28;10.73;;;4.40;;
67092;SDS011;54011;50.772;7.730;2022-10-18T07:10:53;9.77;;;4.60;;
67092;SDS011;54011;50.772;7.730;2022-10-18T07:13:20;12.18;;;4.45;;
67092;SDS011;54011;50.772;7.730;2022-10-18T07:15:46;21.05;;;5.20;;
67092;SDS011;54011;50.772;7.730;2022-10-18T07:18:11;11.63;;;4.85;;
67092;SDS011;54011;50.772;7.730;2022-10-18T07:20:37;10.82;;;5.45;;
67092;SDS011;54011;50.772;7.730;2022-10-18T07:23:02;9.75;;;5.50;;
67092;SDS011;54011;50.772;7.730;2022-10-18T07:25:31;9.02;;;5.85;;
67092;SDS011;54011;50.772;7.730;2022-10-18T07:27:56;8.80;;;5.35;;
67092;SDS011;54011;50.772;7.730;2022-10-18T07:30:22;9.45;;;5.25;;
67092;SDS011;54011;50.772;7.730;2022-10-18T07:32:49;10.85;;;5.30;;
67092;SDS011;54011;50.772;7.730;2022-10-18T07:35:15;11.82;;;5.68;;
67092;SDS011;54011;50.772;7.730;2022-10-18T07:37:41;17.48;;;6.53;;
67092;SDS011;54011;50.772;7.730;2022-10-18T07:40:07;14.55;;;6.38;;
67092;SDS011;54011;50.772;7.730;2022-10-18T07:42:34;15.55;;;6.80;;
67092;SDS011;54011;50.772;7.730;2022-10-18T07:44:59;13.23;;;6.60;;
67092;SDS011;54011;50.772;7.730;2022-10-18T07:47:25;17.40;;;7.13;;
67092;SDS011;54011;50.772;7.730;2022-10-18T07:49:50;23.42;;;6.93;;
67092;SDS011;54011;50.772;7.730;2022-10-18T07:52:16;14.93;;;7.07;;
67092;SDS011;54011;50.772;7.730;2022-10-18T07:54:41;9.88;;;6.45;;
67092;SDS011;54011;50.772;7.730;2022-10-18T07:57:07;11.75;;;5.80;;
67092;SDS011;54011;50.772;7.730;2022-10-18T07:59:32;12.57;;;6.22;;
67092;SDS011;54011;50.772;7.730;2022-10-18T08:01:58;11.68;;;6.32;;
67092;SDS011;54011;50.772;7.730;2022-10-18T08:04:23;8.30;;;5.50;;
67092;SDS011;54011;50.772;7.730;2022-10-18T08:06:49;9.55;;;5.63;;
67092;SDS011;54011;50.772;7.730;2022-10-18T08:09:14;10.40;;;5.80;;
67092;SDS011;54011;50.772;7.730;2022-10-18T08:11:40;9.55;;;5.20;;
67092;SDS011;54011;50.772;7.730;2022-10-18T08:14:05;10.57;;;5.50;;
67092;SDS011;54011;50.772;7.730;2022-10-18T08:16:31;11.95;;;5.72;;
67092;SDS011;54011;50.772;7.730;2022-10-18T08:18:57;13.70;;;5.80;;
67092;SDS011;54011;50.772;7.730;2022-10-18T08:21:22;12.43;;;5.78;;
67092;SDS011;54011;50.772;7.730;2022-10-18T08:23:48;8.07;;;4.82;;
67092;SDS011;54011;50.772;7.730;2022-10-18T08:26:18;10.68;;;5.38;;
67092;SDS011;54011;50.772;7.730;2022-10-18T08:28:45;10.00;;;5.38;;
67092;SDS011;54011;50.772;7.730;2022-10-18T08:31:13;11.68;;;5.20;;
67092;SDS011;54011;50.772;7.730;2022-10-18T08:33:44;9.07;;;5.30;;
67092;SDS011;54011;50.772;7.730;2022-10-18T08:36:11;9.85;;;5.00;;
67092;SDS011;54011;50.772;7.730;2022-10-18T08:38:38;11.43;;;4.80;;
67092;SDS011;54011;50.772;7.730;2022-10-18T08:41:21;9.32;;;4.68;;
67092;SDS011;54011;50.772;7.730;2022-10-18T08:46:54;6.63;;;4.28;;
67092;SDS011;54011;50.772;7.730;2022-10-18T08:49:40;9.90;;;4.78;;
67092;SDS011;54011;50.772;7.730;2022-10-18T08:52:24;10.65;;;5.07;;
67092;SDS011;54011;50.772;7.730;2022-10-18T08:55:24;8.20;;;5.07;;
67092;SDS011;54011;50.772;7.730;2022-10-18T08:57:50;10.90;;;5.57;;
67092;SDS011;54011;50.772;7.730;2022-10-18T09:00:20;6.88;;;4.72;;
67092;SDS011;54011;50.772;7.730;2022-10-18T09:11:56;9.15;;;4.60;;
67092;SDS011;54011;50.772;7.730;2022-10-18T09:24:39;9.57;;;3.67;;
67092;SDS011;54011;50.772;7.730;2022-10-18T09:27:19;5.10;;;3.50;;
67092;SDS011;54011;50.772;7.730;2022-10-18T09:38:23;5.55;;;3.10;;
67092;SDS011;54011;50.772;7.730;2022-10-18T09:40:59;6.90;;;3.00;;
67092;SDS011;54011;50.772;7.730;2022-10-18T09:43:41;8.02;;;2.95;;
67092;SDS011;54011;50.772;7.730;2022-10-18T09:46:13;6.22;;;3.10;;
67092;SDS011;54011;50.772;7.730;2022-10-18T09:48:45;7.85;;;3.10;;
67092;SDS011;54011;50.772;7.730;2022-10-18T09:51:19;5.38;;;2.80;;
67092;SDS011;54011;50.772;7.730;2022-10-18T09:56:25;6.70;;;3.30;;
67092;SDS011;54011;50.772;7.730;2022-10-18T09:58:54;5.22;;;2.70;;
67092;SDS011;54011;50.772;7.730;2022-10-18T10:01:21;7.03;;;3.20;;
67092;SDS011;54011;50.772;7.730;2022-10-18T10:03:49;6.70;;;3.45;;
67092;SDS011;54011;50.772;7.730;2022-10-18T10:06:16;9.43;;;3.33;;
67092;SDS011;54011;50.772;7.730;2022-10-18T10:08:58;5.18;;;3.25;;
67092;SDS011;54011;50.772;7.730;2022-10-18T10:14:06;5.43;;;2.95;;
67092;SDS011;54011;50.772;7.730;2022-10-18T10:21:57;8.13;;;3.50;;
67092;SDS011;54011;50.772;7.730;2022-10-18T10:24:36;5.93;;;3.47;;
67092;SDS011;54011;50.772;7.730;2022-10-18T10:27:29;6.50;;;3.20;;
67092;SDS011;54011;50.772;7.730;2022-10-18T10:29:59;4.88;;;3.38;;
67092;SDS011;54011;50.772;7.730;2022-10-18T10:32:27;5.78;;;3.90;;
67092;SDS011;54011;50.772;7.730;2022-10-18T10:34:55;7.75;;;3.58;;
67092;SDS011;54011;50.772;7.730;2022-10-18T10:40:13;4.97;;;3.22;;
67092;SDS011;54011;50.772;7.730;2022-10-18T10:43:04;5.65;;;2.88;;
67092;SDS011;54011;50.772;7.730;2022-10-18T10:45:37;11.60;;;2.95;;
67092;SDS011;54011;50.772;7.730;2022-10-18T10:48:16;6.88;;;2.90;;
67092;SDS011;54011;50.772;7.730;2022-10-18T10:50:51;6.97;;;2.97;;
67092;SDS011;54011;50.772;7.730;2022-10-18T10:53:45;6.32;;;3.25;;
67092;SDS011;54011;50.772;7.730;2022-10-18T10:56:19;7.88;;;3.40;;
67092;SDS011;54011;50.772;7.730;2022-10-18T10:58:52;5.85;;;2.67;;
67092;SDS011;54011;50.772;7.730;2022-10-18T11:01:53;8.07;;;3.28;;
67092;SDS011;54011;50.772;7.730;2022-10-18T11:04:27;8.35;;;3.05;;
67092;SDS011;54011;50.772;7.730;2022-10-18T11:09:40;6.88;;;3.33;;
67092;SDS011;54011;50.772;7.730;2022-10-18T11:12:28;7.68;;;3.00;;
67092;SDS011;54011;50.772;7.730;2022-10-18T11:20:25;9.45;;;3.88;;
67092;SDS011;54011;50.772;7.730;2022-10-18T11:25:20;6.05;;;3.80;;
67092;SDS011;54011;50.772;7.730;2022-10-18T11:30:21;7.72;;;4.75;;
67092;SDS011;54011;50.772;7.730;2022-10-18T11:33:13;8.15;;;5.10;;
67092;SDS011;54011;50.772;7.730;2022-10-18T11:35:51;8.35;;;5.70;;
67092;SDS011;54011;50.772;7.730;2022-10-18T12:03:06;6.72;;;2.80;;
67092;SDS011;54011;50.772;7.730;2022-10-18T12:05:40;5.85;;;3.10;;
67092;SDS011;54011;50.772;7.730;2022-10-18T12:08:10;5.45;;;2.92;;
67092;SDS011;54011;50.772;7.730;2022-10-18T12:10:40;6.70;;;2.80;;
67092;SDS011;54011;50.772;7.730;2022-10-18T12:13:10;6.55;;;3.17;;
67092;SDS011;54011;50.772;7.730;2022-10-18T12:15:40;7.85;;;3.55;;
67092;SDS011;54011;50.772;7.730;2022-10-18T12:18:09;7.82;;;3.78;;
67092;SDS011;54011;50.772;7.730;2022-10-18T12:20:40;8.32;;;3.60;;
67092;SDS011;54011;50.772;7.730;2022-10-18T12:23:14;7.00;;;3.78;;
67092;SDS011;54011;50.772;7.730;2022-10-18T12:25:44;8.40;;;4.07;;
67092;SDS011;54011;50.772;7.730;2022-10-18T12:31:04;6.63;;;4.22;;
67092;SDS011;54011;50.772;7.730;2022-10-18T12:33:33;5.57;;;3.80;;
67092;SDS011;54011;50.772;7.730;2022-10-18T12:38:52;6.40;;;3.35;;
67092;SDS011;54011;50.772;7.730;2022-10-18T12:41:25;9.05;;;3.47;;
67092;SDS011;54011;50.772;7.730;2022-10-18T12:43:55;8.43;;;3.33;;
67092;SDS011;54011;50.772;7.730;2022-10-18T12:49:17;8.00;;;3.67;;
67092;SDS011;54011;50.772;7.730;2022-10-18T12:51:52;7.30;;;3.80;;
67092;SDS011;54011;50.772;7.730;2022-10-18T12:54:38;11.60;;;3.97;;
67092;SDS011;54011;50.772;7.730;2022-10-18T12:57:04;9.48;;;3.85;;
67092;SDS011;54011;50.772;7.730;2022-10-18T12:59:42;5.35;;;3.13;;
67092;SDS011;54011;50.772;7.730;2022-10-18T13:02:14;7.20;;;3.60;;
67092;SDS011;54011;50.772;7.730;2022-10-18T13:04:45;6.75;;;3.20;;
67092;SDS011;54011;50.772;7.730;2022-10-18T13:07:31;11.60;;;3.50;;
67092;SDS011;54011;50.772;7.730;2022-10-18T13:12:55;12.82;;;4.13;;
67092;SDS011;54011;50.772;7.730;2022-10-18T13:18:17;8.15;;;4.70;;
67092;SDS011;54011;50.772;7.730;2022-10-18T13:26:01;6.82;;;4.35;;
67092;SDS011;54011;50.772;7.730;2022-10-18T13:31:27;10.10;;;5.07;;
67092;SDS011;54011;50.772;7.730;2022-10-18T13:39:27;9.07;;;5.20;;
67092;SDS011;54011;50.772;7.730;2022-10-18T13:42:16;8.27;;;4.68;;
67092;SDS011;54011;50.772;7.730;2022-10-18T13:44:40;7.80;;;5.47;;
67092;SDS011;54011;50.772;7.730;2022-10-18T13:54:56;11.25;;;5.70;;
67092;SDS011;54011;50.772;7.730;2022-10-18T14:08:28;9.15;;;6.38;;
67092;SDS011;54011;50.772;7.730;2022-10-18T14:13:44;13.75;;;7.70;;
67092;SDS011;54011;50.772;7.730;2022-10-18T14:16:18;14.18;;;6.72;;
67092;SDS011;54011;50.772;7.730;2022-10-18T14:18:55;12.02;;;7.25;;
67092;SDS011;54011;50.772;7.730;2022-10-18T14:21:38;9.75;;;6.55;;
67092;SDS011;54011;50.772;7.730;2022-10-18T14:24:16;10.25;;;6.72;;
67092;SDS011;54011;50.772;7.730;2022-10-18T14:27:08;12.30;;;6.35;;
67092;SDS011;54011;50.772;7.730;2022-10-18T14:29:40;13.05;;;7.50;;
67092;SDS011;54011;50.772;7.730;2022-10-18T14:32:10;11.63;;;6.97;;
67092;SDS011;54011;50.772;7.730;2022-10-18T14:37:14;9.57;;;6.70;;
67092;SDS011;54011;50.772;7.730;2022-10-18T14:39:50;10.52;;;7.22;;
67092;SDS011;54011;50.772;7.730;2022-10-18T14:42:19;10.90;;;6.40;;
67092;SDS011;54011;50.772;7.730;2022-10-18T14:44:47;10.85;;;6.65;;
67092;SDS011;54011;50.772;7.730;2022-10-18T14:47:20;12.18;;;6.88;;
67092;SDS011;54011;50.772;7.730;2022-10-18T14:49:47;11.65;;;6.28;;
67092;SDS011;54011;50.772;7.730;2022-10-18T14:52:17;13.38;;;7.10;;
67092;SDS011;54011;50.772;7.730;2022-10-18T14:54:45;11.07;;;6.68;;
67092;SDS011;54011;50.772;7.730;2022-10-18T14:57:15;13.63;;;7.90;;
67092;SDS011;54011;50.772;7.730;2022-10-18T15:00:04;10.80;;;7.03;;
67092;SDS011;54011;50.772;7.730;2022-10-18T15:02:34;12.57;;;7.45;;
67092;SDS011;54011;50.772;7.730;2022-10-18T15:07:43;12.25;;;7.75;;
67092;SDS011;54011;50.772;7.730;2022-10-18T15:10:13;14.75;;;8.10;;
67092;SDS011;54011;50.772;7.730;2022-10-18T15:12:41;13.00;;;7.20;;
67092;SDS011;54011;50.772;7.730;2022-10-18T15:15:27;13.85;;;8.85;;
67092;SDS011;54011;50.772;7.730;2022-10-18T15:17:55;11.95;;;7.53;;
67092;SDS011;54011;50.772;7.730;2022-10-18T15:20:28;16.90;;;7.80;;
67092;SDS011;54011;50.772;7.730;2022-10-18T15:25:58;15.70;;;7.93;;
67092;SDS011;54011;50.772;7.730;2022-10-18T15:28:30;15.32;;;8.57;;
67092;SDS011;54011;50.772;7.730;2022-10-18T15:31:00;18.65;;;9.10;;
67092;SDS011;54011;50.772;7.730;2022-10-18T15:33:27;16.25;;;9.98;;
67092;SDS011;54011;50.772;7.730;2022-10-18T15:36:06;16.48;;;10.02;;
67092;SDS011;54011;50.772;7.730;2022-10-18T15:38:34;15.90;;;9.95;;
67092;SDS011;54011;50.772;7.730;2022-10-18T15:52:30;25.77;;;13.50;;
67092;SDS011;54011;50.772;7.730;2022-10-18T15:54:56;26.13;;;14.27;;
67092;SDS011;54011;50.772;7.730;2022-10-18T15:57:22;23.65;;;14.32;;
67092;SDS011;54011;50.772;7.730;2022-10-18T15:59:52;23.85;;;14.20;;
67092;SDS011;54011;50.772;7.730;2022-10-18T16:02:18;26.55;;;15.45;;
67092;SDS011;54011;50.772;7.730;2022-10-18T16:04:44;27.38;;;14.85;;
67092;SDS011;54011;50.772;7.730;2022-10-18T16:07:11;27.00;;;15.80;;
67092;SDS011;54011;50.772;7.730;2022-10-18T16:09:37;25.75;;;15.48;;
67092;SDS011;54011;50.772;7.730;2022-10-18T16:12:03;32.45;;;17.25;;
67092;SDS011;54011;50.772;7.730;2022-10-18T16:14:29;33.60;;;16.33;;
67092;SDS011;54011;50.772;7.730;2022-10-18T16:16:58;30.92;;;17.42;;
67092;SDS011;54011;50.772;7.730;2022-10-18T16:21:52;32.60;;;16.45;;
67092;SDS011;54011;50.772;7.730;2022-10-18T16:24:18;35.20;;;18.58;;
67092;SDS011;54011;50.772;7.730;2022-10-18T16:26:44;34.85;;;18.48;;
67092;SDS011;54011;50.772;7.730;2022-10-18T16:29:17;32.38;;;18.95;;
67092;SDS011;54011;50.772;7.730;2022-10-18T16:31:48;34.95;;;19.27;;
67092;SDS011;54011;50.772;7.730;2022-10-18T16:34:15;42.85;;;21.38;;
67092;SDS011;54011;50.772;7.730;2022-10-18T16:36:41;39.35;;;20.95;;
67092;SDS011;54011;50.772;7.730;2022-10-18T16:39:13;41.90;;;20.30;;
67092;SDS011;54011;50.772;7.730;2022-10-18T16:41:40;41.95;;;21.10;;
67092;SDS011;54011;50.772;7.730;2022-10-18T16:44:07;41.95;;;20.67;;
67092;SDS011;54011;50.772;7.730;2022-10-18T16:46:35;43.20;;;20.13;;
67092;SDS011;54011;50.772;7.730;2022-10-18T16:49:01;50.25;;;21.60;;
67092;SDS011;54011;50.772;7.730;2022-10-18T16:51:27;43.65;;;21.95;;
67092;SDS011;54011;50.772;7.730;2022-10-18T16:53:52;43.35;;;22.23;;
67092;SDS011;54011;50.772;7.730;2022-10-18T16:56:23;48.58;;;23.00;;
67092;SDS011;54011;50.772;7.730;2022-10-18T16:58:51;47.03;;;23.38;;
67092;SDS011;54011;50.772;7.730;2022-10-18T17:01:17;51.60;;;23.13;;
67092;SDS011;54011;50.772;7.730;2022-10-18T17:03:44;45.40;;;22.77;;
67092;SDS011;54011;50.772;7.730;2022-10-18T17:06:12;44.85;;;23.02;;
67092;SDS011;54011;50.772;7.730;2022-10-18T17:08:40;50.00;;;22.95;;
67092;SDS011;54011;50.772;7.730;2022-10-18T17:11:05;45.63;;;21.23;;
67092;SDS011;54011;50.772;7.730;2022-10-18T17:13:31;44.10;;;21.45;;
67092;SDS011;54011;50.772;7.730;2022-10-18T17:15:56;45.67;;;22.58;;
67092;SDS011;54011;50.772;7.730;2022-10-18T17:18:24;41.80;;;21.80;;
67092;SDS011;54011;50.772;7.730;2022-10-18T17:23:21;44.13;;;21.40;;
67092;SDS011;54011;50.772;7.730;2022-10-18T17:25:47;43.95;;;21.30;;
67092;SDS011;54011;50.772;7.730;2022-10-18T17:28:16;45.10;;;21.27;;
67092;SDS011;54011;50.772;7.730;2022-10-18T17:30:43;44.22;;;22.55;;
67092;SDS011;54011;50.772;7.730;2022-10-18T17:33:10;48.05;;;21.90;;
67092;SDS011;54011;50.772;7.730;2022-10-18T17:35:36;49.97;;;22.77;;
67092;SDS011;54011;50.772;7.730;2022-10-18T17:38:02;58.30;;;26.17;;
67092;SDS011;54011;50.772;7.730;2022-10-18T17:40:29;56.47;;;24.40;;
67092;SDS011;54011;50.772;7.730;2022-10-18T17:42:55;61.45;;;25.52;;
67092;SDS011;54011;50.772;7.730;2022-10-18T17:45:21;54.03;;;24.83;;
67092;SDS011;54011;50.772;7.730;2022-10-18T17:47:47;58.35;;;25.80;;
67092;SDS011;54011;50.772;7.730;2022-10-18T17:50:13;60.83;;;27.05;;
67092;SDS011;54011;50.772;7.730;2022-10-18T17:52:44;56.13;;;25.58;;